createdAt,value
2022-11-22T00:03:46.990Z,6.4
2022-11-22T00:18:46.992Z,6.2
2022-11-22T00:33:47.005Z,6.1
2022-11-22T00:48:47.024Z,6.2
2022-11-22T01:03:47.019Z,6.1
2022-11-22T01:18:47.020Z,6
2022-11-22T01:33:46.991Z,5.9
2022-11-22T01:48:46.992Z,5.9
2022-11-22T02:03:47.009Z,5.8
2022-11-22T02:18:47.008Z,5.8
2022-11-22T02:33:47.160Z,5.7
2022-11-22T02:48:47.017Z,5.6
2022-11-22T03:03:46.989Z,5.6
2022-11-22T03:18:46.996Z,5.4
2022-11-22T03:33:46.983Z,5.2
2022-11-22T03:48:47.014Z,5.2
2022-11-22T04:03:47.010Z,5.1
2022-11-22T04:18:47.013Z,5
2022-11-22T04:33:47.021Z,5.1
2022-11-22T04:48:47.023Z,4.9
2022-11-22T05:03:46.987Z,4.9
2022-11-22T05:18:47.005Z,4.9
2022-11-22T05:33:47.125Z,4.8
2022-11-22T05:48:47.002Z,4.8
2022-11-22T06:03:47.011Z,4.7
2022-11-22T06:18:46.995Z,4.7
2022-11-22T06:33:47.022Z,4.6
2022-11-22T06:48:47.009Z,4.6
2022-11-22T07:03:47.000Z,4.6
2022-11-22T07:18:47.021Z,4.4
2022-11-22T07:33:47.010Z,4.6
2022-11-22T07:48:47.037Z,4.3
2022-11-22T08:03:47.018Z,4.5
2022-11-22T08:18:47.008Z,5.1
2022-11-22T08:33:46.994Z,5.5
2022-11-22T08:48:46.992Z,5.6
2022-11-22T09:03:47.023Z,5.5
2022-11-22T09:18:46.996Z,5.8
2022-11-22T09:33:46.990Z,5.9
2022-11-22T09:48:46.940Z,6.3
2022-11-22T10:03:47.036Z,6.6
2022-11-22T10:18:47.004Z,7.1
2022-11-22T10:33:46.988Z,6.9
2022-11-22T10:48:47.028Z,7
2022-11-22T11:03:46.993Z,7.1
2022-11-22T11:18:46.986Z,7.3
2022-11-22T11:33:47.025Z,7.3
2022-11-22T11:48:47.002Z,7.4
2022-11-22T12:03:47.044Z,7.6
2022-11-22T12:18:47.000Z,7.9
2022-11-22T12:33:46.903Z,7.8
2022-11-22T12:48:48.826Z,7.9
2022-11-22T13:03:46.987Z,7.9
2022-11-22T13:18:46.991Z,7.9
2022-11-22T13:33:46.985Z,7.9
2022-11-22T13:48:47.016Z,7.8
2022-11-22T14:03:47.011Z,7.7
2022-11-22T14:18:46.990Z,7.5
2022-11-22T14:33:47.005Z,7.2
2022-11-22T14:48:46.998Z,7.2
2022-11-22T15:03:47.026Z,7.1
2022-11-22T16:03:47.010Z,6.7
2022-11-22T16:18:47.020Z,6.8
2022-11-22T16:33:46.990Z,6.9
2022-11-22T16:48:47.032Z,7
2022-11-22T17:03:47.019Z,7.1
2022-11-22T17:18:46.991Z,7.2
2022-11-22T17:33:46.972Z,7.4
2022-11-22T17:48:47.015Z,7.5
2022-11-22T18:03:47.064Z,7.6
2022-11-22T18:18:57.337Z,7.6
2022-11-22T18:33:46.988Z,7.8
2022-11-22T18:48:47.002Z,7.8
2022-11-22T19:03:47.021Z,7.9
2022-11-22T19:18:46.992Z,7.9
2022-11-22T19:33:46.990Z,7.9
2022-11-22T19:48:47.452Z,7.9
2022-11-22T20:03:47.017Z,8
2022-11-22T20:18:47.032Z,7.8
2022-11-22T20:33:47.000Z,7.9
2022-11-22T20:48:46.992Z,7.9
2022-11-22T21:03:51.038Z,7.7
2022-11-22T21:18:47.021Z,7.6
2022-11-22T21:33:46.988Z,7.8
2022-11-22T21:48:47.024Z,7.8
2022-11-22T22:03:47.010Z,7.8
2022-11-22T22:18:46.986Z,7.9
2022-11-22T22:33:46.988Z,8
2022-11-22T22:48:46.991Z,7.7
2022-11-22T23:03:47.016Z,7.7
2022-11-22T23:18:46.971Z,7.8
2022-11-22T23:33:46.994Z,7.8
2022-11-22T23:48:46.994Z,7.9
